Airfield :
LOGIN :

Register | Disclaimer

   EN    FR    IT 

 










Legend :    VFR   Marginal VFR   IFR   Intensive IFR   Very Intensive IFR
Visi :
Ceiling :
>= 8 km
>= 3000ft
5 to 8 km
1000 to 3000 ft
1500m to 5 km
500 to 1000 ft
800 to 1500m
200 to 500 ft
< 800m
< 200 ft
Symbols :   Thunderstorms  Fog  Heavy snow  Heavy precipitations  Wind > 20 kt
SIGMETs :     Misc.  Thunderstorms  Icing  Turbulence  Mountain Waves  Volcanic Ashes







- Airport Elevation : 796 ft
- IATA code : SYT
- Download approach charts


LFLN - Saint-Yan

CURRENT METAR :
  • 182300Z AUTO 00000KT 6000 FEW032 01/00 Q1024

EXPIRED METARs :
  • 182230Z AUTO 17002KT 8000 BKN032 02/01 Q1024
  • 182200Z AUTO 14002KT 9999 BKN033 03/01 Q1024 TEMPO 3000 BR
  • 182130Z AUTO 17002KT 9999 OVC034 03/02 Q1024 TEMPO 3000 BR
  • 182100Z AUTO 00000KT 9999 OVC034 03/01 Q1025 TEMPO 3000 BR
  • 182030Z AUTO VRB02KT 9999 OVC033 03/02 Q1025 TEMPO 3000 BR

TAF TAF LFLN
Valid from the 18 at 18:00 until the 19 at 03:00 UTC


181655Z 1818/1903 VRB02KT 9999 BKN030 BKN250
PROB40
TEMPO 1821/1903 3000 BR
No reported NOTAMs for that airfield.



MET'MAP, your aeronautical weather chart ! - Copyright ORBIFLY December 2007 - Disclaimer

ORBIFLY MET'MAP TEAM :

Programming & Development : Alexandra Zaïnal
Concept & Development : Baudouin d'Aumeries
Co-Development & Prog : Marc-Olivier Méhu
Technical & hardware support : Manuel Goepfert

Contact : metmap@orbifly.com




SOURCES & CREDITS :

   NOAA